EST,Max TemperatureF,Mean TemperatureF,Min TemperatureF,Max Dew PointF,MeanDew PointF,Min DewpointF,Max Humidity, Mean Humidity, Min Humidity, Max Sea Level PressureIn, Mean Sea Level PressureIn, Min Sea Level PressureIn, Max VisibilityMiles, Mean VisibilityMiles, Min VisibilityMiles, Max Wind SpeedMPH, Mean Wind SpeedMPH, Max Gust SpeedMPH,PrecipitationIn, CloudCover, Events, WindDirDegrees
2013-2-1,19,14,10,10,6,1,80,66,50,30.68,30.24,29.90,10,10,7,18,12,24,0.00,5,Snow,267
2013-2-2,21,18,12,19,13,5,93,81,64,30.23,30.04,29.94,10,5,1,15,10,28,0.01,8,Snow,240
2013-2-3,21,16,10,19,10,3,93,75,57,30.03,29.93,29.84,10,7,1,17,5,26,0.00,7,Fog-Snow,277
2013-2-4,19,18,16,18,14,4,93,82,59,30.76,30.00,29.89,10,6,1,8,4,,0.01,8,Snow,111
2013-2-5,28,21,15,25,18,12,92,82,66,30.64,29.94,29.82,10,8,1,13,5,18,0.00,7,Snow,220
2013-2-6,28,22,16,25,16,12,88,73,58,31.08,30.22,29.93,10,9,5,12,7,16,0.00,3,Snow,265
2013-2-7,35,30,24,26,23,17,84,75,67,30.32,30.15,29.92,10,10,10,16,6,16,0.00,6,,110
2013-2-8,30,28,25,29,25,17,100,87,72,30.35,29.95,29.76,10,5,0,24,13,34,0.19,8,Fog-Rain-Snow,12
2013-2-9,28,21,14,19,16,12,92,78,63,31.15,30.29,28.24,10,10,10,12,5,,0.00,0,,221
2013-2-10,39,29,19,32,24,18,96,79,64,30.31,30.08,29.73,10,10,8,13,6,,0.06,5,Rain,129
2013-2-11,44,38,33,43,29,23,97,71,59,29.87,29.69,29.57,10,10,10,32,17,46,0.00,8,,239
2013-2-12,34,32,28,25,22,19,75,65,60,30.06,29.97,29.90,10,10,9,17,12,26,0.00,8,,271
2013-2-13,37,32,27,27,22,20,88,72,52,29.94,29.84,29.75,10,10,8,9,5,,0.00,5,,219
2013-2-14,39,34,28,32,29,27,96,78,65,29.83,29.76,29.69,10,7,2,20,9,31,0.02,6,Rain-Snow,212
2013-2-15,35,30,25,27,17,9,75,61,41,30.13,30.02,29.85,10,10,6,15,9,24,0.00,7,Snow,295
2013-2-16,27,22,17,21,15,10,93,75,51,30.11,30.03,29.97,10,7,1,12,5,18,0.04,7,Snow,317
2013-2-17,23,16,10,12,5,2,84,61,42,30.93,30.27,30.06,10,10,6,13,7,18,0.00,2,Snow,321
2013-2-18,44,30,16,32,20,6,81,67,54,30.97,30.15,29.65,10,10,10,16,8,20,0.00,3,Rain,159
2013-2-19,44,32,19,40,24,8,96,77,59,29.93,29.64,29.44,10,8,2,25,18,36,0.09,8,Rain-Snow,239
2013-2-20,23,20,17,12,9,5,78,63,50,30.96,30.25,29.91,10,9,4,17,14,29,0.00,8,Snow,291
2013-2-21,25,22,19,18,12,9,86,67,54,30.41,30.35,30.26,10,10,9,13,9,22,0.00,7,,29
2013-2-22,34,28,21,31,25,17,100,90,74,30.29,30.01,29.89,10,4,0,17,11,26,0.09,8,Fog-Snow,133
2013-2-23,34,29,24,32,23,18,92,71,59,29.93,29.90,29.87,10,10,8,15,11,21,0.00,7,,237
2013-2-24,35,30,23,25,22,19,88,74,59,30.17,30.04,29.92,10,10,8,12,7,17,0.00,6,,278
2013-2-25,37,28,19,25,21,17,96,74,52,30.25,30.19,30.14,10,10,7,9,3,,0.00,1,,115
2013-2-26,35,32,28,32,28,21,96,85,67,30.13,29.77,29.52,10,6,2,22,13,30,0.66,5,Rain-Snow,77
2013-2-27,36,34,33,34,32,30,100,91,81,29.60,29.52,29.45,10,6,0,17,12,24,0.08,8,Fog-Rain-Snow,185
2013-2-28,37,34,30,33,30,24,96,85,70,29.96,29.71,29.54,10,8,2,22,9,29,0.04,8,Snow,335